sensor_id;sensor_type;location;lat;lon;timestamp;P1;durP1;ratioP1;P2;durP2;ratioP2
10653;SDS011;5375;51.250;6.776;2023-04-12T00:01:56;3.50;;;1.40;;
10653;SDS011;5375;51.250;6.776;2023-04-12T00:04:22;3.10;;;1.20;;
10653;SDS011;5375;51.250;6.776;2023-04-12T00:06:54;3.50;;;1.50;;
10653;SDS011;5375;51.250;6.776;2023-04-12T00:09:20;2.73;;;1.40;;
10653;SDS011;5375;51.250;6.776;2023-04-12T00:11:48;3.53;;;1.57;;
10653;SDS011;5375;51.250;6.776;2023-04-12T00:14:13;2.93;;;1.50;;
10653;SDS011;5375;51.250;6.776;2023-04-12T00:16:39;3.00;;;1.40;;
10653;SDS011;5375;51.250;6.776;2023-04-12T00:19:05;3.00;;;1.20;;
10653;SDS011;5375;51.250;6.776;2023-04-12T00:21:31;2.80;;;1.23;;
10653;SDS011;5375;51.250;6.776;2023-04-12T00:23:57;3.10;;;1.30;;
10653;SDS011;5375;51.250;6.776;2023-04-12T00:26:22;2.30;;;1.20;;
10653;SDS011;5375;51.250;6.776;2023-04-12T00:28:55;3.53;;;1.40;;
10653;SDS011;5375;51.250;6.776;2023-04-12T00:31:20;3.10;;;1.37;;
10653;SDS011;5375;51.250;6.776;2023-04-12T00:33:46;3.35;;;1.17;;
10653;SDS011;5375;51.250;6.776;2023-04-12T00:36:11;2.55;;;1.35;;
10653;SDS011;5375;51.250;6.776;2023-04-12T00:38:37;4.43;;;1.40;;
10653;SDS011;5375;51.250;6.776;2023-04-12T00:41:03;3.77;;;1.43;;
10653;SDS011;5375;51.250;6.776;2023-04-12T00:43:28;4.50;;;1.57;;
10653;SDS011;5375;51.250;6.776;2023-04-12T00:45:54;2.70;;;1.30;;
10653;SDS011;5375;51.250;6.776;2023-04-12T00:48:24;3.53;;;1.30;;
10653;SDS011;5375;51.250;6.776;2023-04-12T00:50:51;3.20;;;1.50;;
10653;SDS011;5375;51.250;6.776;2023-04-12T00:53:19;3.80;;;1.40;;
10653;SDS011;5375;51.250;6.776;2023-04-12T00:55:52;3.50;;;1.23;;
10653;SDS011;5375;51.250;6.776;2023-04-12T00:58:22;3.00;;;1.23;;
10653;SDS011;5375;51.250;6.776;2023-04-12T01:00:50;2.90;;;1.07;;
10653;SDS011;5375;51.250;6.776;2023-04-12T01:03:21;2.35;;;1.10;;
10653;SDS011;5375;51.250;6.776;2023-04-12T01:08:52;4.40;;;1.40;;
10653;SDS011;5375;51.250;6.776;2023-04-12T01:12:15;2.80;;;1.27;;
10653;SDS011;5375;51.250;6.776;2023-04-12T01:17:34;3.40;;;1.40;;
10653;SDS011;5375;51.250;6.776;2023-04-12T01:20:08;2.73;;;1.10;;
10653;SDS011;5375;51.250;6.776;2023-04-12T01:28:21;3.63;;;1.20;;
10653;SDS011;5375;51.250;6.776;2023-04-12T01:30:51;2.97;;;1.23;;
10653;SDS011;5375;51.250;6.776;2023-04-12T01:33:21;3.00;;;1.10;;
10653;SDS011;5375;51.250;6.776;2023-04-12T01:35:55;3.17;;;1.10;;
10653;SDS011;5375;51.250;6.776;2023-04-12T01:38:26;5.23;;;1.60;;
10653;SDS011;5375;51.250;6.776;2023-04-12T01:40:53;2.80;;;1.23;;
10653;SDS011;5375;51.250;6.776;2023-04-12T01:43:18;2.97;;;1.27;;
10653;SDS011;5375;51.250;6.776;2023-04-12T01:45:44;4.87;;;1.27;;
10653;SDS011;5375;51.250;6.776;2023-04-12T01:48:10;2.23;;;1.20;;
10653;SDS011;5375;51.250;6.776;2023-04-12T01:53:27;2.37;;;1.00;;
10653;SDS011;5375;51.250;6.776;2023-04-12T01:56:00;2.90;;;1.08;;
10653;SDS011;5375;51.250;6.776;2023-04-12T01:58:32;3.33;;;1.37;;
10653;SDS011;5375;51.250;6.776;2023-04-12T02:00:58;3.57;;;1.43;;
10653;SDS011;5375;51.250;6.776;2023-04-12T02:03:27;2.60;;;1.10;;
10653;SDS011;5375;51.250;6.776;2023-04-12T02:05:54;1.67;;;1.00;;
10653;SDS011;5375;51.250;6.776;2023-04-12T02:08:22;3.73;;;1.60;;
10653;SDS011;5375;51.250;6.776;2023-04-12T02:10:48;2.37;;;1.03;;
10653;SDS011;5375;51.250;6.776;2023-04-12T02:13:15;2.27;;;1.27;;
10653;SDS011;5375;51.250;6.776;2023-04-12T02:15:42;2.57;;;1.20;;
10653;SDS011;5375;51.250;6.776;2023-04-12T02:18:11;3.78;;;1.10;;
10653;SDS011;5375;51.250;6.776;2023-04-12T02:20:40;3.07;;;1.10;;
10653;SDS011;5375;51.250;6.776;2023-04-12T02:23:07;6.40;;;1.47;;
10653;SDS011;5375;51.250;6.776;2023-04-12T02:25:35;4.77;;;1.37;;
10653;SDS011;5375;51.250;6.776;2023-04-12T02:28:02;3.83;;;1.10;;
10653;SDS011;5375;51.250;6.776;2023-04-12T02:30:28;18.97;;;1.40;;
10653;SDS011;5375;51.250;6.776;2023-04-12T02:32:53;10.13;;;1.63;;
10653;SDS011;5375;51.250;6.776;2023-04-12T02:35:22;3.53;;;1.20;;
10653;SDS011;5375;51.250;6.776;2023-04-12T02:37:48;3.63;;;1.20;;
10653;SDS011;5375;51.250;6.776;2023-04-12T02:40:15;5.03;;;1.10;;
10653;SDS011;5375;51.250;6.776;2023-04-12T02:42:41;1.93;;;1.00;;
10653;SDS011;5375;51.250;6.776;2023-04-12T02:45:07;3.67;;;1.30;;
10653;SDS011;5375;51.250;6.776;2023-04-12T02:47:34;5.33;;;1.43;;
10653;SDS011;5375;51.250;6.776;2023-04-12T02:50:00;4.13;;;1.43;;
10653;SDS011;5375;51.250;6.776;2023-04-12T02:52:27;2.37;;;1.10;;
10653;SDS011;5375;51.250;6.776;2023-04-12T02:54:53;1.80;;;1.13;;
10653;SDS011;5375;51.250;6.776;2023-04-12T02:57:20;2.47;;;1.10;;
10653;SDS011;5375;51.250;6.776;2023-04-12T02:59:46;3.67;;;1.25;;
10653;SDS011;5375;51.250;6.776;2023-04-12T03:02:12;3.13;;;1.17;;
10653;SDS011;5375;51.250;6.776;2023-04-12T03:04:38;3.60;;;1.30;;
10653;SDS011;5375;51.250;6.776;2023-04-12T03:07:04;2.10;;;1.00;;
10653;SDS011;5375;51.250;6.776;2023-04-12T03:09:30;3.57;;;1.10;;
10653;SDS011;5375;51.250;6.776;2023-04-12T03:11:56;3.63;;;1.30;;
10653;SDS011;5375;51.250;6.776;2023-04-12T03:14:22;3.73;;;1.13;;
10653;SDS011;5375;51.250;6.776;2023-04-12T03:16:48;3.07;;;1.30;;
10653;SDS011;5375;51.250;6.776;2023-04-12T03:19:15;3.83;;;1.50;;
10653;SDS011;5375;51.250;6.776;2023-04-12T03:21:41;2.23;;;1.07;;
10653;SDS011;5375;51.250;6.776;2023-04-12T03:24:07;1.87;;;1.03;;
10653;SDS011;5375;51.250;6.776;2023-04-12T03:26:33;5.43;;;1.30;;
10653;SDS011;5375;51.250;6.776;2023-04-12T03:28:59;8.07;;;1.10;;
10653;SDS011;5375;51.250;6.776;2023-04-12T03:31:29;2.33;;;1.10;;
10653;SDS011;5375;51.250;6.776;2023-04-12T03:33:55;15.90;;;1.50;;
10653;SDS011;5375;51.250;6.776;2023-04-12T03:36:21;5.60;;;1.43;;
10653;SDS011;5375;51.250;6.776;2023-04-12T03:38:47;5.32;;;1.10;;
10653;SDS011;5375;51.250;6.776;2023-04-12T03:41:13;10.20;;;1.10;;
10653;SDS011;5375;51.250;6.776;2023-04-12T03:43:39;25.77;;;1.90;;
10653;SDS011;5375;51.250;6.776;2023-04-12T03:46:06;3.30;;;1.30;;
10653;SDS011;5375;51.250;6.776;2023-04-12T03:48:32;3.88;;;1.30;;
10653;SDS011;5375;51.250;6.776;2023-04-12T03:50:58;4.77;;;1.10;;
10653;SDS011;5375;51.250;6.776;2023-04-12T03:53:26;1.93;;;0.90;;
10653;SDS011;5375;51.250;6.776;2023-04-12T03:55:56;1.95;;;0.90;;
10653;SDS011;5375;51.250;6.776;2023-04-12T03:58:22;3.93;;;0.90;;
10653;SDS011;5375;51.250;6.776;2023-04-12T04:00:48;3.90;;;0.70;;
10653;SDS011;5375;51.250;6.776;2023-04-12T04:03:16;2.77;;;0.90;;
10653;SDS011;5375;51.250;6.776;2023-04-12T04:05:42;2.50;;;0.80;;
10653;SDS011;5375;51.250;6.776;2023-04-12T04:08:08;7.27;;;1.10;;
10653;SDS011;5375;51.250;6.776;2023-04-12T04:10:35;8.80;;;1.17;;
10653;SDS011;5375;51.250;6.776;2023-04-12T04:13:01;5.17;;;1.20;;
10653;SDS011;5375;51.250;6.776;2023-04-12T04:15:26;2.90;;;0.77;;
10653;SDS011;5375;51.250;6.776;2023-04-12T04:17:52;1.70;;;0.77;;
10653;SDS011;5375;51.250;6.776;2023-04-12T04:20:18;1.97;;;0.80;;
10653;SDS011;5375;51.250;6.776;2023-04-12T04:22:44;1.07;;;0.90;;
10653;SDS011;5375;51.250;6.776;2023-04-12T04:25:17;4.40;;;0.90;;
10653;SDS011;5375;51.250;6.776;2023-04-12T04:27:43;1.33;;;0.60;;
10653;SDS011;5375;51.250;6.776;2023-04-12T04:30:10;3.00;;;1.10;;
10653;SDS011;5375;51.250;6.776;2023-04-12T04:32:36;2.13;;;1.00;;
10653;SDS011;5375;51.250;6.776;2023-04-12T04:35:02;2.20;;;0.80;;
10653;SDS011;5375;51.250;6.776;2023-04-12T04:37:29;2.17;;;1.03;;
10653;SDS011;5375;51.250;6.776;2023-04-12T04:39:56;3.50;;;1.03;;
10653;SDS011;5375;51.250;6.776;2023-04-12T04:42:24;2.40;;;0.90;;
10653;SDS011;5375;51.250;6.776;2023-04-12T04:44:50;4.47;;;0.80;;
10653;SDS011;5375;51.250;6.776;2023-04-12T04:47:16;7.53;;;1.17;;
10653;SDS011;5375;51.250;6.776;2023-04-12T04:49:43;3.20;;;0.90;;
10653;SDS011;5375;51.250;6.776;2023-04-12T04:52:08;2.30;;;1.00;;
10653;SDS011;5375;51.250;6.776;2023-04-12T04:54:34;1.77;;;0.90;;
10653;SDS011;5375;51.250;6.776;2023-04-12T04:57:00;1.83;;;0.80;;
10653;SDS011;5375;51.250;6.776;2023-04-12T04:59:26;1.53;;;0.60;;
10653;SDS011;5375;51.250;6.776;2023-04-12T05:01:51;1.70;;;0.70;;
10653;SDS011;5375;51.250;6.776;2023-04-12T05:04:17;3.17;;;0.80;;
10653;SDS011;5375;51.250;6.776;2023-04-12T05:06:43;2.20;;;1.13;;
10653;SDS011;5375;51.250;6.776;2023-04-12T05:09:09;1.27;;;0.57;;
10653;SDS011;5375;51.250;6.776;2023-04-12T05:11:35;2.60;;;1.00;;
10653;SDS011;5375;51.250;6.776;2023-04-12T05:14:01;2.60;;;1.10;;
10653;SDS011;5375;51.250;6.776;2023-04-12T05:16:27;2.47;;;0.80;;
10653;SDS011;5375;51.250;6.776;2023-04-12T05:18:52;1.70;;;0.85;;
10653;SDS011;5375;51.250;6.776;2023-04-12T05:21:23;2.93;;;0.90;;
10653;SDS011;5375;51.250;6.776;2023-04-12T05:23:50;4.43;;;1.00;;
10653;SDS011;5375;51.250;6.776;2023-04-12T05:26:15;2.27;;;1.00;;
10653;SDS011;5375;51.250;6.776;2023-04-12T05:28:41;3.37;;;1.10;;
10653;SDS011;5375;51.250;6.776;2023-04-12T05:31:07;2.23;;;0.90;;
10653;SDS011;5375;51.250;6.776;2023-04-12T05:33:32;2.57;;;1.00;;
10653;SDS011;5375;51.250;6.776;2023-04-12T05:35:58;3.43;;;0.93;;
10653;SDS011;5375;51.250;6.776;2023-04-12T05:38:24;4.47;;;0.90;;
10653;SDS011;5375;51.250;6.776;2023-04-12T05:40:50;2.07;;;0.70;;
10653;SDS011;5375;51.250;6.776;2023-04-12T05:43:15;3.28;;;1.05;;
10653;SDS011;5375;51.250;6.776;2023-04-12T05:45:42;2.67;;;1.00;;
10653;SDS011;5375;51.250;6.776;2023-04-12T05:48:07;1.87;;;0.70;;
10653;SDS011;5375;51.250;6.776;2023-04-12T05:50:33;1.90;;;0.77;;
10653;SDS011;5375;51.250;6.776;2023-04-12T05:52:59;2.90;;;1.00;;
10653;SDS011;5375;51.250;6.776;2023-04-12T05:55:26;1.53;;;0.90;;
10653;SDS011;5375;51.250;6.776;2023-04-12T05:57:52;1.63;;;1.00;;
10653;SDS011;5375;51.250;6.776;2023-04-12T06:00:18;2.67;;;1.00;;
10653;SDS011;5375;51.250;6.776;2023-04-12T06:02:45;2.00;;;0.80;;
10653;SDS011;5375;51.250;6.776;2023-04-12T06:05:12;2.60;;;0.93;;
10653;SDS011;5375;51.250;6.776;2023-04-12T06:07:38;2.00;;;0.87;;
10653;SDS011;5375;51.250;6.776;2023-04-12T06:10:06;2.47;;;1.10;;
10653;SDS011;5375;51.250;6.776;2023-04-12T06:12:32;1.50;;;0.80;;
10653;SDS011;5375;51.250;6.776;2023-04-12T06:14:58;2.33;;;0.83;;
10653;SDS011;5375;51.250;6.776;2023-04-12T06:17:23;1.73;;;0.80;;
10653;SDS011;5375;51.250;6.776;2023-04-12T06:19:49;1.70;;;0.80;;
10653;SDS011;5375;51.250;6.776;2023-04-12T06:22:15;2.10;;;0.80;;
10653;SDS011;5375;51.250;6.776;2023-04-12T06:24:40;2.20;;;1.03;;
10653;SDS011;5375;51.250;6.776;2023-04-12T06:27:06;2.40;;;0.90;;
10653;SDS011;5375;51.250;6.776;2023-04-12T06:29:33;2.57;;;0.93;;
10653;SDS011;5375;51.250;6.776;2023-04-12T06:31:58;2.30;;;1.00;;
10653;SDS011;5375;51.250;6.776;2023-04-12T06:34:24;3.17;;;1.00;;
10653;SDS011;5375;51.250;6.776;2023-04-12T06:36:49;1.80;;;1.00;;
10653;SDS011;5375;51.250;6.776;2023-04-12T06:39:15;1.60;;;0.67;;
10653;SDS011;5375;51.250;6.776;2023-04-12T06:41:41;3.40;;;0.83;;
10653;SDS011;5375;51.250;6.776;2023-04-12T06:44:11;2.20;;;1.00;;
10653;SDS011;5375;51.250;6.776;2023-04-12T06:46:37;2.13;;;0.93;;
10653;SDS011;5375;51.250;6.776;2023-04-12T06:49:02;2.03;;;0.90;;
10653;SDS011;5375;51.250;6.776;2023-04-12T06:51:28;1.83;;;1.00;;
10653;SDS011;5375;51.250;6.776;2023-04-12T06:53:54;2.17;;;0.87;;
10653;SDS011;5375;51.250;6.776;2023-04-12T06:56:21;1.47;;;0.80;;
10653;SDS011;5375;51.250;6.776;2023-04-12T06:58:47;3.00;;;0.80;;
10653;SDS011;5375;51.250;6.776;2023-04-12T07:01:13;2.22;;;0.95;;
10653;SDS011;5375;51.250;6.776;2023-04-12T07:03:39;8.07;;;0.93;;
10653;SDS011;5375;51.250;6.776;2023-04-12T07:06:05;1.20;;;0.80;;
10653;SDS011;5375;51.250;6.776;2023-04-12T07:08:31;3.40;;;1.07;;
10653;SDS011;5375;51.250;6.776;2023-04-12T07:10:57;2.47;;;1.10;;
10653;SDS011;5375;51.250;6.776;2023-04-12T07:13:24;2.17;;;0.82;;
10653;SDS011;5375;51.250;6.776;2023-04-12T07:15:58;2.13;;;1.00;;
10653;SDS011;5375;51.250;6.776;2023-04-12T07:18:24;2.60;;;1.00;;
10653;SDS011;5375;51.250;6.776;2023-04-12T07:20:53;1.73;;;0.90;;
10653;SDS011;5375;51.250;6.776;2023-04-12T07:23:20;3.77;;;0.80;;
10653;SDS011;5375;51.250;6.776;2023-04-12T07:25:47;2.83;;;0.80;;
10653;SDS011;5375;51.250;6.776;2023-04-12T07:28:12;1.40;;;0.80;;
10653;SDS011;5375;51.250;6.776;2023-04-12T07:30:38;2.83;;;0.97;;
10653;SDS011;5375;51.250;6.776;2023-04-12T07:33:04;2.50;;;0.80;;
10653;SDS011;5375;51.250;6.776;2023-04-12T07:35:31;0.93;;;0.70;;
10653;SDS011;5375;51.250;6.776;2023-04-12T07:37:57;1.73;;;1.10;;
10653;SDS011;5375;51.250;6.776;2023-04-12T07:40:23;1.60;;;0.70;;
10653;SDS011;5375;51.250;6.776;2023-04-12T07:42:48;2.03;;;0.80;;
10653;SDS011;5375;51.250;6.776;2023-04-12T07:45:14;1.07;;;0.80;;
10653;SDS011;5375;51.250;6.776;2023-04-12T07:47:40;3.60;;;0.80;;
10653;SDS011;5375;51.250;6.776;2023-04-12T07:50:07;1.17;;;0.77;;
10653;SDS011;5375;51.250;6.776;2023-04-12T07:52:33;2.53;;;0.97;;
10653;SDS011;5375;51.250;6.776;2023-04-12T07:54:59;2.33;;;0.70;;
10653;SDS011;5375;51.250;6.776;2023-04-12T07:57:24;4.30;;;0.93;;
10653;SDS011;5375;51.250;6.776;2023-04-12T07:59:50;2.27;;;0.70;;
10653;SDS011;5375;51.250;6.776;2023-04-12T08:02:18;2.90;;;0.80;;
10653;SDS011;5375;51.250;6.776;2023-04-12T08:04:49;5.90;;;1.95;;
10653;SDS011;5375;51.250;6.776;2023-04-12T08:07:17;2.17;;;0.90;;
10653;SDS011;5375;51.250;6.776;2023-04-12T08:09:43;1.83;;;0.80;;
10653;SDS011;5375;51.250;6.776;2023-04-12T08:12:08;2.00;;;0.70;;
10653;SDS011;5375;51.250;6.776;2023-04-12T08:14:35;1.83;;;0.70;;
10653;SDS011;5375;51.250;6.776;2023-04-12T08:17:01;1.40;;;0.80;;
10653;SDS011;5375;51.250;6.776;2023-04-12T08:19:26;1.00;;;0.70;;
10653;SDS011;5375;51.250;6.776;2023-04-12T08:21:52;1.63;;;0.70;;
10653;SDS011;5375;51.250;6.776;2023-04-12T08:24:17;1.77;;;0.90;;
10653;SDS011;5375;51.250;6.776;2023-04-12T08:26:52;1.20;;;0.70;;
10653;SDS011;5375;51.250;6.776;2023-04-12T08:29:21;1.20;;;0.70;;
10653;SDS011;5375;51.250;6.776;2023-04-12T08:31:47;1.50;;;0.80;;
10653;SDS011;5375;51.250;6.776;2023-04-12T08:34:12;1.80;;;0.80;;
10653;SDS011;5375;51.250;6.776;2023-04-12T08:36:38;1.47;;;0.70;;
10653;SDS011;5375;51.250;6.776;2023-04-12T08:39:03;1.13;;;0.60;;
10653;SDS011;5375;51.250;6.776;2023-04-12T08:41:32;2.50;;;0.73;;
10653;SDS011;5375;51.250;6.776;2023-04-12T08:43:59;1.00;;;0.73;;
10653;SDS011;5375;51.250;6.776;2023-04-12T08:46:25;2.03;;;1.00;;
10653;SDS011;5375;51.250;6.776;2023-04-12T08:48:52;3.60;;;0.70;;
10653;SDS011;5375;51.250;6.776;2023-04-12T08:51:19;3.07;;;1.00;;
10653;SDS011;5375;51.250;6.776;2023-04-12T08:53:47;3.93;;;0.90;;
10653;SDS011;5375;51.250;6.776;2023-04-12T08:56:13;2.47;;;0.67;;
10653;SDS011;5375;51.250;6.776;2023-04-12T08:58:40;2.78;;;0.90;;
10653;SDS011;5375;51.250;6.776;2023-04-12T09:01:14;1.43;;;0.70;;
10653;SDS011;5375;51.250;6.776;2023-04-12T09:03:44;1.33;;;0.70;;
10653;SDS011;5375;51.250;6.776;2023-04-12T09:06:10;2.20;;;0.77;;
10653;SDS011;5375;51.250;6.776;2023-04-12T09:08:49;0.90;;;0.67;;
10653;SDS011;5375;51.250;6.776;2023-04-12T09:13:48;1.23;;;0.77;;
10653;SDS011;5375;51.250;6.776;2023-04-12T09:16:14;1.33;;;0.80;;
10653;SDS011;5375;51.250;6.776;2023-04-12T09:18:46;1.30;;;0.70;;
10653;SDS011;5375;51.250;6.776;2023-04-12T09:21:13;1.10;;;0.60;;
10653;SDS011;5375;51.250;6.776;2023-04-12T09:23:39;1.10;;;0.70;;
10653;SDS011;5375;51.250;6.776;2023-04-12T09:26:05;1.20;;;0.70;;
10653;SDS011;5375;51.250;6.776;2023-04-12T09:28:32;1.00;;;0.70;;
10653;SDS011;5375;51.250;6.776;2023-04-12T09:30:58;0.87;;;0.70;;
10653;SDS011;5375;51.250;6.776;2023-04-12T09:35:59;2.23;;;0.70;;
10653;SDS011;5375;51.250;6.776;2023-04-12T09:38:26;1.07;;;0.60;;
10653;SDS011;5375;51.250;6.776;2023-04-12T09:40:52;0.80;;;0.60;;
10653;SDS011;5375;51.250;6.776;2023-04-12T09:43:18;1.83;;;0.70;;
10653;SDS011;5375;51.250;6.776;2023-04-12T09:46:12;1.97;;;0.77;;
10653;SDS011;5375;51.250;6.776;2023-04-12T09:48:39;2.10;;;1.00;;
10653;SDS011;5375;51.250;6.776;2023-04-12T09:51:05;0.70;;;0.60;;
10653;SDS011;5375;51.250;6.776;2023-04-12T09:53:33;1.10;;;0.60;;
10653;SDS011;5375;51.250;6.776;2023-04-12T09:56:02;1.25;;;0.60;;
10653;SDS011;5375;51.250;6.776;2023-04-12T09:58:29;1.77;;;0.68;;
10653;SDS011;5375;51.250;6.776;2023-04-12T10:00:58;1.00;;;0.60;;
10653;SDS011;5375;51.250;6.776;2023-04-12T10:03:26;3.60;;;0.87;;
10653;SDS011;5375;51.250;6.776;2023-04-12T10:05:53;0.97;;;0.60;;
10653;SDS011;5375;51.250;6.776;2023-04-12T10:08:21;3.13;;;0.60;;
10653;SDS011;5375;51.250;6.776;2023-04-12T10:10:47;1.20;;;0.70;;
10653;SDS011;5375;51.250;6.776;2023-04-12T10:13:13;2.00;;;0.67;;
10653;SDS011;5375;51.250;6.776;2023-04-12T10:15:40;2.43;;;0.77;;
10653;SDS011;5375;51.250;6.776;2023-04-12T10:18:06;1.43;;;0.60;;
10653;SDS011;5375;51.250;6.776;2023-04-12T10:20:32;0.83;;;0.67;;
10653;SDS011;5375;51.250;6.776;2023-04-12T10:22:58;1.67;;;0.65;;
10653;SDS011;5375;51.250;6.776;2023-04-12T10:25:24;1.13;;;0.50;;
10653;SDS011;5375;51.250;6.776;2023-04-12T10:27:51;1.30;;;0.70;;
10653;SDS011;5375;51.250;6.776;2023-04-12T10:30:24;1.23;;;0.60;;
10653;SDS011;5375;51.250;6.776;2023-04-12T10:33:11;1.67;;;0.60;;
10653;SDS011;5375;51.250;6.776;2023-04-12T10:38:22;3.83;;;0.67;;
10653;SDS011;5375;51.250;6.776;2023-04-12T10:43:37;1.20;;;0.70;;
10653;SDS011;5375;51.250;6.776;2023-04-12T10:46:05;1.27;;;0.80;;
10653;SDS011;5375;51.250;6.776;2023-04-12T10:54:29;1.67;;;0.60;;
10653;SDS011;5375;51.250;6.776;2023-04-12T10:56:37;2.47;;;0.73;;
10653;SDS011;5375;51.250;6.776;2023-04-12T10:59:05;1.07;;;0.60;;
10653;SDS011;5375;51.250;6.776;2023-04-12T11:01:35;0.90;;;0.60;;
10653;SDS011;5375;51.250;6.776;2023-04-12T11:06:48;1.52;;;0.50;;
10653;SDS011;5375;51.250;6.776;2023-04-12T11:09:20;0.80;;;0.60;;
10653;SDS011;5375;51.250;6.776;2023-04-12T11:11:49;2.33;;;0.70;;
10653;SDS011;5375;51.250;6.776;2023-04-12T11:14:24;1.67;;;0.70;;
10653;SDS011;5375;51.250;6.776;2023-04-12T11:19:36;0.77;;;0.50;;
10653;SDS011;5375;51.250;6.776;2023-04-12T11:22:17;1.60;;;0.93;;
10653;SDS011;5375;51.250;6.776;2023-04-12T11:24:50;4.13;;;0.93;;
10653;SDS011;5375;51.250;6.776;2023-04-12T11:27:18;2.90;;;0.70;;
10653;SDS011;5375;51.250;6.776;2023-04-12T11:29:46;0.87;;;0.50;;
10653;SDS011;5375;51.250;6.776;2023-04-12T11:32:14;1.20;;;0.60;;
10653;SDS011;5375;51.250;6.776;2023-04-12T11:34:40;1.63;;;0.60;;
10653;SDS011;5375;51.250;6.776;2023-04-12T11:37:08;2.50;;;0.70;;
10653;SDS011;5375;51.250;6.776;2023-04-12T11:39:37;1.00;;;0.60;;
10653;SDS011;5375;51.250;6.776;2023-04-12T11:42:05;2.00;;;0.57;;
10653;SDS011;5375;51.250;6.776;2023-04-12T11:44:32;1.10;;;0.70;;
10653;SDS011;5375;51.250;6.776;2023-04-12T11:46:58;1.33;;;0.63;;
10653;SDS011;5375;51.250;6.776;2023-04-12T11:49:25;0.70;;;0.60;;
10653;SDS011;5375;51.250;6.776;2023-04-12T11:52:01;0.80;;;0.60;;
10653;SDS011;5375;51.250;6.776;2023-04-12T11:54:28;0.90;;;0.60;;
10653;SDS011;5375;51.250;6.776;2023-04-12T11:56:55;2.17;;;1.13;;
10653;SDS011;5375;51.250;6.776;2023-04-12T11:59:28;2.27;;;0.90;;
10653;SDS011;5375;51.250;6.776;2023-04-12T12:01:57;3.77;;;0.70;;
10653;SDS011;5375;51.250;6.776;2023-04-12T12:04:24;0.63;;;0.57;;
10653;SDS011;5375;51.250;6.776;2023-04-12T12:06:50;0.90;;;0.60;;
10653;SDS011;5375;51.250;6.776;2023-04-12T12:09:16;1.30;;;0.50;;
10653;SDS011;5375;51.250;6.776;2023-04-12T12:11:41;2.80;;;0.60;;
10653;SDS011;5375;51.250;6.776;2023-04-12T12:14:07;0.97;;;0.80;;
10653;SDS011;5375;51.250;6.776;2023-04-12T12:16:33;1.50;;;0.77;;
10653;SDS011;5375;51.250;6.776;2023-04-12T12:19:02;2.90;;;0.70;;
10653;SDS011;5375;51.250;6.776;2023-04-12T12:21:28;2.03;;;0.70;;
10653;SDS011;5375;51.250;6.776;2023-04-12T12:23:55;2.15;;;0.70;;
10653;SDS011;5375;51.250;6.776;2023-04-12T12:26:25;1.10;;;0.77;;
10653;SDS011;5375;51.250;6.776;2023-04-12T12:28:52;1.27;;;0.70;;
10653;SDS011;5375;51.250;6.776;2023-04-12T12:31:23;1.90;;;0.80;;
10653;SDS011;5375;51.250;6.776;2023-04-12T12:33:55;1.27;;;0.60;;
10653;SDS011;5375;51.250;6.776;2023-04-12T12:36:31;2.60;;;0.70;;
10653;SDS011;5375;51.250;6.776;2023-04-12T12:39:02;1.85;;;0.98;;
10653;SDS011;5375;51.250;6.776;2023-04-12T12:41:35;2.03;;;0.77;;
10653;SDS011;5375;51.250;6.776;2023-04-12T12:44:01;3.25;;;0.90;;
10653;SDS011;5375;51.250;6.776;2023-04-12T12:46:27;2.42;;;0.95;;
10653;SDS011;5375;51.250;6.776;2023-04-12T12:48:53;4.10;;;1.02;;
10653;SDS011;5375;51.250;6.776;2023-04-12T12:51:19;3.47;;;0.80;;
10653;SDS011;5375;51.250;6.776;2023-04-12T12:53:45;1.83;;;0.77;;
10653;SDS011;5375;51.250;6.776;2023-04-12T12:56:11;4.17;;;0.70;;
10653;SDS011;5375;51.250;6.776;2023-04-12T12:58:38;2.47;;;1.00;;
10653;SDS011;5375;51.250;6.776;2023-04-12T13:01:04;1.40;;;0.70;;
10653;SDS011;5375;51.250;6.776;2023-04-12T13:03:31;2.03;;;1.10;;
10653;SDS011;5375;51.250;6.776;2023-04-12T13:05:57;1.33;;;0.80;;
10653;SDS011;5375;51.250;6.776;2023-04-12T13:08:23;2.63;;;1.10;;
10653;SDS011;5375;51.250;6.776;2023-04-12T13:10:49;3.60;;;1.07;;
10653;SDS011;5375;51.250;6.776;2023-04-12T13:13:16;2.33;;;0.90;;
10653;SDS011;5375;51.250;6.776;2023-04-12T13:15:45;2.67;;;0.88;;
10653;SDS011;5375;51.250;6.776;2023-04-12T13:18:18;2.10;;;0.80;;
10653;SDS011;5375;51.250;6.776;2023-04-12T13:20:44;1.67;;;0.73;;
10653;SDS011;5375;51.250;6.776;2023-04-12T13:23:09;1.43;;;0.73;;
10653;SDS011;5375;51.250;6.776;2023-04-12T13:25:35;2.80;;;0.90;;
10653;SDS011;5375;51.250;6.776;2023-04-12T13:28:08;2.92;;;0.77;;
10653;SDS011;5375;51.250;6.776;2023-04-12T13:30:34;2.30;;;0.77;;
10653;SDS011;5375;51.250;6.776;2023-04-12T13:33:00;2.38;;;1.00;;
10653;SDS011;5375;51.250;6.776;2023-04-12T13:35:25;3.03;;;1.20;;
10653;SDS011;5375;51.250;6.776;2023-04-12T13:38:00;2.47;;;0.90;;
10653;SDS011;5375;51.250;6.776;2023-04-12T13:40:26;1.50;;;0.75;;
10653;SDS011;5375;51.250;6.776;2023-04-12T13:42:52;1.92;;;0.88;;
10653;SDS011;5375;51.250;6.776;2023-04-12T13:45:17;1.30;;;0.80;;
10653;SDS011;5375;51.250;6.776;2023-04-12T13:47:43;3.90;;;1.00;;
10653;SDS011;5375;51.250;6.776;2023-04-12T13:50:09;3.63;;;1.00;;
10653;SDS011;5375;51.250;6.776;2023-04-12T13:52:34;2.42;;;0.95;;
10653;SDS011;5375;51.250;6.776;2023-04-12T13:55:00;1.65;;;0.80;;
10653;SDS011;5375;51.250;6.776;2023-04-12T13:57:26;1.83;;;0.90;;
10653;SDS011;5375;51.250;6.776;2023-04-12T13:59:59;1.70;;;0.77;;
10653;SDS011;5375;51.250;6.776;2023-04-12T14:02:24;2.78;;;1.00;;
10653;SDS011;5375;51.250;6.776;2023-04-12T14:04:51;1.90;;;0.98;;
10653;SDS011;5375;51.250;6.776;2023-04-12T14:07:17;3.88;;;1.10;;
10653;SDS011;5375;51.250;6.776;2023-04-12T14:09:43;2.00;;;0.80;;
10653;SDS011;5375;51.250;6.776;2023-04-12T14:12:09;2.53;;;1.37;;
10653;SDS011;5375;51.250;6.776;2023-04-12T14:14:35;1.83;;;0.90;;
10653;SDS011;5375;51.250;6.776;2023-04-12T14:17:01;2.22;;;0.88;;
10653;SDS011;5375;51.250;6.776;2023-04-12T14:19:27;2.00;;;1.00;;
10653;SDS011;5375;51.250;6.776;2023-04-12T14:21:53;1.93;;;1.00;;
10653;SDS011;5375;51.250;6.776;2023-04-12T14:24:21;3.00;;;0.90;;
10653;SDS011;5375;51.250;6.776;2023-04-12T14:26:50;2.72;;;0.93;;
10653;SDS011;5375;51.250;6.776;2023-04-12T14:29:21;2.07;;;0.80;;
10653;SDS011;5375;51.250;6.776;2023-04-12T14:31:46;1.67;;;0.77;;
10653;SDS011;5375;51.250;6.776;2023-04-12T14:34:12;1.90;;;1.00;;
10653;SDS011;5375;51.250;6.776;2023-04-12T14:36:38;1.97;;;0.90;;
10653;SDS011;5375;51.250;6.776;2023-04-12T14:39:03;3.80;;;0.97;;
10653;SDS011;5375;51.250;6.776;2023-04-12T14:41:30;2.42;;;0.80;;
10653;SDS011;5375;51.250;6.776;2023-04-12T14:43:58;1.90;;;0.83;;
10653;SDS011;5375;51.250;6.776;2023-04-12T14:46:24;2.72;;;1.10;;
10653;SDS011;5375;51.250;6.776;2023-04-12T14:48:53;3.13;;;0.85;;
10653;SDS011;5375;51.250;6.776;2023-04-12T14:51:20;2.70;;;1.00;;
10653;SDS011;5375;51.250;6.776;2023-04-12T14:53:46;1.90;;;1.03;;
10653;SDS011;5375;51.250;6.776;2023-04-12T14:56:19;1.67;;;0.80;;
10653;SDS011;5375;51.250;6.776;2023-04-12T14:58:45;2.80;;;0.80;;
10653;SDS011;5375;51.250;6.776;2023-04-12T15:01:11;2.23;;;0.87;;
10653;SDS011;5375;51.250;6.776;2023-04-12T15:03:37;1.23;;;0.70;;
10653;SDS011;5375;51.250;6.776;2023-04-12T15:06:06;2.13;;;0.87;;
10653;SDS011;5375;51.250;6.776;2023-04-12T15:08:35;3.00;;;1.00;;
10653;SDS011;5375;51.250;6.776;2023-04-12T15:11:06;1.45;;;0.80;;
10653;SDS011;5375;51.250;6.776;2023-04-12T15:13:37;2.23;;;1.00;;
10653;SDS011;5375;51.250;6.776;2023-04-12T15:16:08;1.67;;;0.70;;
10653;SDS011;5375;51.250;6.776;2023-04-12T15:18:37;2.20;;;1.07;;
10653;SDS011;5375;51.250;6.776;2023-04-12T15:21:05;3.50;;;0.70;;
10653;SDS011;5375;51.250;6.776;2023-04-12T15:23:35;2.20;;;0.67;;
10653;SDS011;5375;51.250;6.776;2023-04-12T15:26:01;2.42;;;0.90;;
10653;SDS011;5375;51.250;6.776;2023-04-12T15:28:27;0.80;;;0.60;;
10653;SDS011;5375;51.250;6.776;2023-04-12T15:30:53;1.27;;;0.80;;
10653;SDS011;5375;51.250;6.776;2023-04-12T15:33:19;3.93;;;0.80;;
10653;SDS011;5375;51.250;6.776;2023-04-12T15:35:45;1.03;;;0.67;;
10653;SDS011;5375;51.250;6.776;2023-04-12T15:38:12;2.33;;;0.87;;